• Join FlightAware (Why Join?)
  • Login
  • US Flag 
07:31AM EDT


 

Airport Tracker/Info


-or-


 

Live Flight TrackerFlight Track Log ✈ ASQ4096 ✈ 06-Oct-2013 ✈ KIAH - KDTW

Flight Track Log - Related Links

Times and Time Zones

All times are in EDT time to prevent confusion due to time zone crossing. See the ASQ4096 flight status page for this flight to view local times or setup timezone preferences in your user account.

Time Position Orientation Groundspeed Altitude Reporting Facility
EDT Latitude Longitude Course Direction KTS MPH feet Rate Location/Type
10:47PM 29.9489 -95.3403 North 190 219 700  Level Houston Center
10:48PM 29.9156 -95.3661 214° Southwest 202 232 2,200 1,620 Climbing Houston Center
10:49PM 29.9308 -95.3856 312° West 215 247 2,900 1,320 Climbing Houston Center
10:49PM 29.9628 -95.3772 13° North 231 266 3,600 1,860 Climbing Houston Center
10:50PM 29.9811 -95.3511 51° Northeast 226 260 4,800 2,520 Climbing Houston Center
10:50PM 29.9944 -95.3106 69° East 240 276 6,200 2,220 Climbing Houston Center
10:51PM 30.3936 -95.0092 30° Northeast  Level Estimated
10:51PM 30.0108 -95.2794 59° Northeast 249 287 7,100  Level Houston Center
10:52PM 30.4957 -94.9258 27° Northeast  Level Estimated
10:52PM 30.0669 -95.2322 36° Northeast 249 287 9,700  Level Houston Center
10:53PM 30.6193 -94.9044 North  Level FlightAware Approximate
10:53PM 30.1411 -95.2097 15° North 273 314 10,400  Level Houston Center
10:54PM 30.2289 -95.1739 19° North 334 384 11,000 840 Climbing Houston Center
10:55PM 30.3097 -95.1047 36° Northeast 359 413 12,100 1,140 Climbing Houston Center
10:56PM 30.3917 -95.0336 37° Northeast 366 421 13,300 1,260 Climbing Houston Center
10:57PM 30.4808 -94.9567 37° Northeast 367 422 14,700 1,320 Climbing Houston Center
10:58PM 30.5642 -94.8847 37° Northeast 373 429 16,000 1,200 Climbing Houston Center
10:59PM 30.6475 -94.8122 37° Northeast 374 430 17,200 1,080 Climbing Houston Center
11:00PM 30.7308 -94.7408 36° Northeast 374 430 18,300 1,080 Climbing Houston Center
11:01PM 30.8144 -94.6678 37° Northeast 377 434 19,400 1,140 Climbing Houston Center
11:02PM 30.8972 -94.5953 37° Northeast 376 433 20,600 1,140 Climbing Houston Center
11:03PM 30.9972 -94.5075 37° Northeast 378 435 21,800 1,080 Climbing Houston Center
11:04PM 31.0822 -94.4328 37° Northeast 384 442 22,800 900 Climbing Houston Center
11:05PM 31.1686 -94.3586 36° Northeast 388 447 23,700 900 Climbing Houston Center
11:06PM 31.2542 -94.2825 37° Northeast 390 449 24,700 960 Climbing Houston Center
11:07PM 31.3394 -94.2072 37° Northeast 387 445 25,700 1,020 Climbing Houston Center
11:08PM 31.4236 -94.1328 37° Northeast 383 441 26,800 1,140 Climbing Houston Center
11:09PM 31.5075 -94.0594 37° Northeast 379 436 28,000 1,200 Climbing Houston Center
11:10PM 31.5897 -93.9864 37° Northeast 374 430 29,300 1,200 Climbing Houston Center
11:11PM 31.6711 -93.9144 37° Northeast 369 425 30,500 1,140 Climbing Houston Center
11:12PM 31.7503 -93.8428 38° Northeast 363 418 31,600 1,140 Climbing Houston Center
11:13PM 31.8428 -93.7597 37° Northeast 364 419 32,800 1,020 Climbing Houston Center
11:14PM 31.9244 -93.6867 37° Northeast 366 421 33,700 780 Climbing Houston Center
11:15PM 32.0069 -93.6125 37° Northeast 370 426 34,400 540 Climbing Houston Center
11:16PM 32.0936 -93.5350 37° Northeast 382 440 34,900 240 Climbing Houston Center
11:17PM 32.1906 -93.4417 39° Northeast 388 447 35,000  Climbing Fort Worth Center
11:18PM 32.2878 -93.3564 37° Northeast 407 468 35,000  Level Fort Worth Center
11:19PM 32.3872 -93.2633 38° Northeast 433 498 35,000  Level Fort Worth Center
11:21PM 32.4947 -93.1558 40° Northeast  Level FlightAware Approximate
11:21PM 32.5958 -93.0736 40° Northeast 464 534 35,000  Level Fort Worth Center
11:22PM 32.7031 -92.9772 37° Northeast 477 549 35,000  Level Fort Worth Center
11:23PM 32.8103 -92.8806 37° Northeast 477 549 35,000  Level Fort Worth Center
11:24PM 32.9131 -92.7836 38° Northeast 477 549 35,000  Level Fort Worth Center
11:25PM 33.0119 -92.6944 37° Northeast 459 528 35,000  Level Fort Worth Center
11:26PM 33.1047 -92.6078 38° Northeast 442 509 35,000  Level Fort Worth Center
11:28PM 33.3169 -92.4131 37° Northeast 444 511 35,000  Level Memphis Center
11:29PM 33.4164 -92.3183 38° Northeast 449 517 35,000  Level Memphis Center
11:30PM 33.5158 -92.2283 37° Northeast 449 517 35,000  Level Memphis Center
11:31PM 33.6175 -92.1308 39° Northeast 455 524 35,000  Level Memphis Center
11:32PM 33.7169 -92.0378 38° Northeast 450 518 35,000  Level Memphis Center
11:33PM 33.8183 -91.9425 38° Northeast 450 518 35,000  Level Memphis Center
11:34PM 33.9197 -91.8467 38° Northeast 455 524 35,000  Level Memphis Center
11:35PM 34.0208 -91.7531 37° Northeast 455 524 35,000  Level Memphis Center
11:36PM 34.1181 -91.6517 41° Northeast 460 529 35,000  Level Memphis Center
11:37PM 34.2169 -91.5578 38° Northeast 460 529 35,000  Level Memphis Center
11:38PM 34.3222 -91.4661 36° Northeast 455 524 35,000  Level Memphis Center
11:39PM 34.4253 -91.3819 34° Northeast 455 524 35,000  Level Memphis Center
11:40PM 34.5261 -91.2950 35° Northeast 449 517 35,000  Level Memphis Center
11:41PM 34.6311 -91.2078 34° Northeast 449 517 35,000  Level Memphis Center
11:42PM 34.7444 -91.1103 35° Northeast 449 517 35,000  Level Memphis Center
11:43PM 34.8450 -91.0250 35° Northeast 449 517 35,000  Level Memphis Center
11:44PM 34.9475 -90.9372 35° Northeast 449 517 35,000  Level Memphis Center
11:45PM 35.0503 -90.8492 35° Northeast 449 517 35,000  Level Memphis Center
11:46PM 35.1528 -90.7608 35° Northeast 449 517 35,000  Level Memphis Center
11:47PM 35.2594 -90.6697 35° Northeast 449 517 35,000  Level Memphis Center
11:48PM 35.3639 -90.5761 36° Northeast 457 526 35,000  Level Memphis Center
11:49PM 35.4619 -90.4922 35° Northeast 465 535 35,000  Level Memphis Center
11:50PM 35.5747 -90.3928 36° Northeast 478 550 35,000  Level Memphis Center
11:51PM 35.6853 -90.2931 36° Northeast 483 556 35,000  Level Memphis Center
11:52PM 35.7997 -90.1881 37° Northeast 477 549 35,000  Level Memphis Center
11:53PM 35.9103 -90.0931 35° Northeast 483 556 35,000  Level Memphis Center
11:54PM 36.0225 -89.9925 36° Northeast 483 556 35,000  Level Memphis Center
11:55PM 36.1328 -89.8969 35° Northeast 483 556 35,000  Level Memphis Center
11:56PM 36.2428 -89.7986 36° Northeast 483 556 35,000  Level Memphis Center
11:59PM 36.4856 -89.5797 36° Northeast 494 568 35,000  Level Kansas City Center
12:00AM 36.5969 -89.4792 36° Northeast 496 571 35,000  Level Kansas City Center
12:01AM 36.7086 -89.3769 36° Northeast 499 574 35,000  Level Kansas City Center
12:02AM 36.8303 -89.2661 36° Northeast 498 573 35,000  Level Kansas City Center
12:03AM 36.9428 -89.1633 36° Northeast 498 573 35,000  Level Kansas City Center
12:03AM 37.0183 -89.0931 37° Northeast 488 562 35,000 300 Level Indianapolis Center
12:04AM 37.1269 -88.9931 36° Northeast 482 555 35,500 720 Climbing Indianapolis Center
12:05AM 37.2219 -88.9064 36° Northeast 467 537 36,500 720 Climbing Indianapolis Center
12:06AM 37.3264 -88.8092 36° Northeast 463 533 37,000 240 Climbing Indianapolis Center
12:07AM 37.4342 -88.7078 37° Northeast 476 548 37,000  Level Indianapolis Center
12:08AM 37.5481 -88.6019 36° Northeast 501 577 37,000  Level Indianapolis Center
12:09AM 37.6647 -88.4919 37° Northeast 517 595 37,000  Level Indianapolis Center
12:10AM 37.7844 -88.3800 36° Northeast 530 610 37,000  Level Indianapolis Center
12:11AM 37.8800 -88.2886 37° Northeast 534 615 37,000  Level Kansas City Center
12:12AM 38.0028 -88.1714 37° Northeast 545 627 37,000  Level Kansas City Center
12:13AM 38.1256 -88.0558 37° Northeast 546 628 37,000  Level Kansas City Center
12:14AM 38.2469 -87.9419 36° Northeast 543 625 37,000  Level Kansas City Center
12:15AM 38.3664 -87.8261 37° Northeast 539 620 37,000  Level Kansas City Center
12:16AM 38.4861 -87.7100 37° Northeast 535 616 37,000  Level Kansas City Center
12:17AM 38.6283 -87.5722 37° Northeast 531 611 37,000  Level Indianapolis Center
12:18AM 38.7478 -87.4569 37° Northeast 530 610 37,000  Level Indianapolis Center
12:19AM 38.8678 -87.3400 37° Northeast 535 616 37,000  Level Indianapolis Center
12:20AM 38.9897 -87.2197 37° Northeast 544 626 37,000  Level Indianapolis Center
12:21AM 39.1114 -87.1003 37° Northeast 546 628 37,000  Level Indianapolis Center
12:22AM 39.2242 -86.9889 37° Northeast 547 629 37,000  Level Indianapolis Center
12:23AM 39.3453 -86.8692 37° Northeast 550 633 37,000  Level Indianapolis Center
12:24AM 39.4669 -86.7464 38° Northeast 553 636 37,000  Level Indianapolis Center
12:25AM 39.5883 -86.6244 38° Northeast 553 636 37,000  Level Indianapolis Center
12:26AM 39.7117 -86.5014 37° Northeast 555 639 37,000  Level Indianapolis Center
12:27AM 39.8381 -86.3728 38° Northeast 558 642 37,000  Level Indianapolis Center
12:28AM 39.9631 -86.2461 38° Northeast 558 642 37,000  Level Indianapolis Center
12:29AM 40.0844 -86.1200 38° Northeast 557 641 37,000  Level Indianapolis Center
12:30AM 40.1972 -85.9817 43° Northeast 556 640 37,000  Level Indianapolis Center
12:31AM 40.3111 -85.8414 43° Northeast 559 643 37,000 -720 Level Indianapolis Center
12:32AM 40.4228 -85.7011 44° Northeast 558 642 35,600 -1,800 Descending Indianapolis Center
12:33AM 40.5331 -85.5608 44° Northeast 554 638 33,500 -2,280 Descending Indianapolis Center
12:34AM 40.6444 -85.4183 44° Northeast 560 644 31,100 -2,400 Descending Indianapolis Center
12:35AM 40.7525 -85.2828 44° Northeast 543 625 28,700 -2,460 Descending Indianapolis Center
12:36AM 40.8553 -85.1472 45° Northeast 526 605 26,200 -2,520 Descending Indianapolis Center
12:37AM 40.9625 -85.0111 44° Northeast 533 613 23,700 -2,280 Descending Indianapolis Center
12:38AM 41.0681 -84.8758 44° Northeast 512 589 21,700 -1,380 Descending Indianapolis Center
12:39AM 41.1672 -84.7453 45° Northeast 503 579 21,000 -480 Descending Indianapolis Center
12:40AM 41.2381 -84.6556 44° Northeast 508 585 21,000  Level Cleveland Center
12:41AM 41.2978 -84.5764 45° Northeast 511 588 21,000  Level Chicago Center
12:42AM 41.3983 -84.4453 44° Northeast 510 587 21,000 -480 Level Chicago Center
12:43AM 41.4961 -84.3156 45° Northeast 502 578 20,100 -900 Descending Chicago Center
12:44AM 41.5908 -84.1917 44° Northeast 484 557 19,200 -1,080 Descending Chicago Center
12:45AM 41.6836 -84.0678 45° Northeast 477 549 18,000 -1,320 Descending Chicago Center
12:46AM 41.7847 -83.9633 38° Northeast 463 533 16,600 -1,740 Descending Chicago Center
12:47AM 41.8797 -83.8575 40° Northeast 448 516 14,600 -1,920 Descending Chicago Center
12:48AM 41.9789 -83.7444 40° Northeast 455 524 12,800 -1,380 Descending Chicago Center
12:49AM 42.0972 -83.6172 39° Northeast 437 503 11,500 -1,140 Descending Cleveland Center
12:49AM 42.1206 -83.6000 29° Northeast 420 483 11,300 -1,020 Descending Cleveland Center
12:50AM 42.1944 -83.5336 34° Northeast 401 461 10,500 -1,020 Descending Cleveland Center
12:50AM 42.2106 -83.5228 26° Northeast 366 421 10,300 -1,320 Descending Cleveland Center
12:51AM 42.2756 -83.4614 35° Northeast 358 412 9,200 -1,500 Descending Cleveland Center
12:51AM 42.2872 -83.4547 23° Northeast 307 353 8,800 -2,400 Descending Cleveland Center
12:52AM 42.3428 -83.4022 35° Northeast 300 345 6,800 -2,520 Descending Cleveland Center
12:52AM 42.3547 -83.3939 27° Northeast 284 327 6,300 -2,520 Descending Cleveland Center
12:53AM 42.4033 -83.3344 42° Northeast 287 330 4,300 -2,100 Descending Cleveland Center
12:53AM 42.4067 -83.3219 70° East 270 311 4,200 -1,020 Descending Cleveland Center
12:54AM 42.3856 -83.2436 110° East 261 300 3,300 -1,140 Descending Cleveland Center
12:54AM 42.3775 -83.2358 145° Southeast 230 265 3,100 -300 Descending Cleveland Center
12:55AM 42.3294 -83.2522 194° South 230 265 3,000 -240 Descending Cleveland Center
12:55AM 42.3214 -83.2592 213° Southwest 204 235 2,900 -840 Descending Cleveland Center
12:56AM 42.2883 -83.2833 208° Southwest 190 219 2,200 -840 Descending Cleveland Center
12:56AM 42.2833 -83.2878 213° Southwest 142 163 2,100 -720 Descending Cleveland Center
12:57AM 42.2539 -83.3075 206° Southwest 156 180 1,500 -840 Descending Cleveland Center
12:57AM 42.2481 -83.3139 219° Southwest 139 160 1,300 -540 Descending Cleveland Center
12:58AM 42.2239 -83.3300 206° Southwest 147 169 1,000 -360 Descending Cleveland Center